Time;durP1;ratioP1;P1;durP2;ratioP2;P2;SDS_P1;SDS_P2;PMS_P1;PMS_P2;Temp;Humidity;BMP_temperature;BMP_pressure;BME280_temperature;BME280_humidity;BME280_pressure;Samples;Min_cycle;Max_cycle;Signal;HPM_P1;HPM_P2
2021/01/23 00:00:14;;;;;;;23.75;7.65;;;;;;;;;;4994113;28;20089;-78
2021/01/23 00:02:41;;;;;;;18.00;7.45;;;;;;;;;;4988501;28;20043;-78
2021/01/23 00:05:08;;;;;;;18.98;7.60;;;;;;;;;;5010900;28;20046;-78
2021/01/23 00:07:35;;;;;;;23.08;9.02;;;;;;;;;;5007624;28;20416;-78
2021/01/23 00:10:02;;;;;;;26.63;7.90;;;;;;;;;;4999968;28;20042;-78
2021/01/23 00:12:30;;;;;;;19.95;8.07;;;;;;;;;;4995950;28;20049;-78
2021/01/23 00:15:06;;;;;;;24.60;8.38;;;;;;;;;;5011593;28;20050;-79
2021/01/23 00:17:33;;;;;;;18.90;7.95;;;;;;;;;;4988489;28;20049;-78
2021/01/23 00:19:59;;;;;;;21.83;7.53;;;;;;;;;;4999181;28;20050;-78
2021/01/23 00:22:28;;;;;;;20.55;8.10;;;;;;;;;;5002077;28;20047;-78
2021/01/23 00:24:55;;;;;;;22.27;8.80;;;;;;;;;;5000182;28;20054;-78
2021/01/23 00:27:21;;;;;;;28.88;8.30;;;;;;;;;;5005163;28;20133;-78
2021/01/23 00:29:48;;;;;;;19.05;8.13;;;;;;;;;;4999924;28;20046;-78
2021/01/23 00:32:15;;;;;;;25.23;9.10;;;;;;;;;;5011281;28;20631;-78
2021/01/23 00:34:43;;;;;;;19.90;8.82;;;;;;;;;;4984555;28;20058;-75
2021/01/23 00:37:10;;;;;;;23.83;8.50;;;;;;;;;;4997091;28;20045;-76
2021/01/23 00:39:37;;;;;;;26.83;9.27;;;;;;;;;;4999814;28;20046;-76
2021/01/23 00:42:03;;;;;;;19.25;8.75;;;;;;;;;;4995889;28;20138;-76
2021/01/23 00:44:33;;;;;;;21.10;8.50;;;;;;;;;;4988893;28;20089;-77
2021/01/23 00:46:59;;;;;;;24.75;9.02;;;;;;;;;;4991050;28;20050;-76
2021/01/23 00:49:26;;;;;;;23.60;9.00;;;;;;;;;;5003827;28;20054;-76
2021/01/23 00:51:53;;;;;;;23.08;8.75;;;;;;;;;;4999765;28;20134;-76
2021/01/23 00:54:20;;;;;;;20.52;8.57;;;;;;;;;;5001694;28;20137;-76
2021/01/23 00:56:46;;;;;;;24.60;8.85;;;;;;;;;;4998376;28;20138;-76
2021/01/23 00:59:14;;;;;;;31.73;10.93;;;;;;;;;;5003325;28;20541;-76
2021/01/23 01:01:41;;;;;;;26.10;9.90;;;;;;;;;;4996934;28;20468;-76
2021/01/23 01:04:07;;;;;;;35.08;11.13;;;;;;;;;;4983877;28;20043;-76
2021/01/23 01:06:34;;;;;;;34.50;10.38;;;;;;;;;;4975283;28;20047;-76
2021/01/23 01:09:01;;;;;;;25.17;10.15;;;;;;;;;;5000302;28;20101;-76
2021/01/23 01:11:27;;;;;;;23.88;10.02;;;;;;;;;;5006038;28;20046;-76
2021/01/23 01:13:54;;;;;;;27.63;10.18;;;;;;;;;;5015635;28;20204;-76
2021/01/23 01:16:21;;;;;;;29.85;10.15;;;;;;;;;;5008310;28;20136;-76
2021/01/23 01:18:47;;;;;;;24.50;10.35;;;;;;;;;;5004038;28;20125;-76
2021/01/23 01:21:14;;;;;;;22.08;9.05;;;;;;;;;;5002998;28;20073;-76
2021/01/23 01:23:42;;;;;;;30.83;9.45;;;;;;;;;;5007061;28;20048;-76
2021/01/23 01:26:09;;;;;;;24.50;11.43;;;;;;;;;;5002649;28;20061;-76
2021/01/23 01:28:36;;;;;;;28.52;10.75;;;;;;;;;;5006042;28;20707;-76
2021/01/23 01:31:04;;;;;;;23.02;10.55;;;;;;;;;;5009785;28;20052;-76
2021/01/23 01:33:31;;;;;;;26.20;9.75;;;;;;;;;;4997765;28;20445;-77
2021/01/23 01:35:58;;;;;;;28.67;10.63;;;;;;;;;;5006663;28;20053;-76
2021/01/23 01:38:24;;;;;;;25.95;11.52;;;;;;;;;;5003981;28;20149;-76
2021/01/23 01:40:51;;;;;;;25.23;9.63;;;;;;;;;;5002829;28;20061;-76
2021/01/23 01:43:18;;;;;;;22.83;9.80;;;;;;;;;;5002577;28;20138;-76
2021/01/23 01:45:46;;;;;;;29.25;10.40;;;;;;;;;;5006784;28;20542;-76
2021/01/23 01:48:12;;;;;;;32.25;9.85;;;;;;;;;;5005809;28;20050;-77
2021/01/23 01:50:47;;;;;;;32.97;11.02;;;;;;;;;;5005765;28;20616;-77
2021/01/23 01:53:20;;;;;;;40.40;11.82;;;;;;;;;;5005292;28;20081;-76
2021/01/23 01:55:47;;;;;;;25.13;10.55;;;;;;;;;;5000638;28;20546;-76
2021/01/23 01:58:17;;;;;;;33.75;11.05;;;;;;;;;;5003784;28;20092;-76
2021/01/23 02:00:44;;;;;;;26.13;11.10;;;;;;;;;;4995298;28;20125;-76
2021/01/23 02:03:16;;;;;;;31.40;10.77;;;;;;;;;;4994572;28;20049;-76
2021/01/23 02:05:45;;;;;;;32.50;13.13;;;;;;;;;;5007489;28;20089;-76
2021/01/23 02:08:12;;;;;;;28.20;11.98;;;;;;;;;;4997176;28;20042;-76
2021/01/23 02:10:38;;;;;;;25.00;10.95;;;;;;;;;;5005566;28;20129;-76
2021/01/23 02:13:24;;;;;;;29.40;10.82;;;;;;;;;;5005158;28;20791;-76
2021/01/23 02:15:56;;;;;;;35.50;11.85;;;;;;;;;;5001688;28;20092;-76
2021/01/23 02:18:24;;;;;;;39.67;11.88;;;;;;;;;;5004246;28;20463;-77
2021/01/23 02:21:09;;;;;;;39.78;12.68;;;;;;;;;;5003925;28;20056;-76
2021/01/23 02:23:38;;;;;;;36.25;12.82;;;;;;;;;;4980952;28;20081;-76
2021/01/23 02:26:14;;;;;;;41.67;14.25;;;;;;;;;;5004185;28;20077;-78
2021/01/23 02:28:46;;;;;;;34.95;13.23;;;;;;;;;;4985615;28;20141;-76
2021/01/23 02:31:17;;;;;;;39.17;12.98;;;;;;;;;;5000601;28;20050;-76
2021/01/23 02:33:47;;;;;;;44.47;14.20;;;;;;;;;;4997611;28;20084;-76
2021/01/23 02:36:16;;;;;;;44.30;14.85;;;;;;;;;;4999028;28;20435;-76
2021/01/23 02:38:43;;;;;;;57.90;15.98;;;;;;;;;;5000507;28;20133;-76
2021/01/23 02:41:09;;;;;;;53.13;17.40;;;;;;;;;;5001599;28;20116;-77
2021/01/23 02:43:44;;;;;;;55.17;16.85;;;;;;;;;;4993806;28;20046;-77
2021/01/23 02:46:12;;;;;;;41.47;14.13;;;;;;;;;;5001343;28;20125;-77
2021/01/23 02:48:38;;;;;;;43.53;15.80;;;;;;;;;;4995588;28;20068;-76
2021/01/23 02:51:11;;;;;;;34.63;13.57;;;;;;;;;;5001575;28;20112;-76
2021/01/23 02:53:39;;;;;;;45.70;13.25;;;;;;;;;;4994005;28;20137;-76
2021/01/23 02:56:15;;;;;;;31.05;12.20;;;;;;;;;;5005527;28;20467;-77
2021/01/23 02:58:44;;;;;;;33.58;13.40;;;;;;;;;;4999440;28;20046;-77
2021/01/23 03:01:11;;;;;;;39.70;13.45;;;;;;;;;;5002124;28;20077;-76
2021/01/23 03:03:40;;;;;;;43.90;13.85;;;;;;;;;;4994412;28;20625;-77
2021/01/23 03:06:08;;;;;;;49.50;14.27;;;;;;;;;;4989860;28;20074;-76
2021/01/23 03:08:34;;;;;;;40.53;14.73;;;;;;;;;;4980141;28;20076;-76
2021/01/23 03:11:02;;;;;;;38.75;13.82;;;;;;;;;;5004228;28;20054;-76
2021/01/23 03:13:36;;;;;;;44.20;14.23;;;;;;;;;;5001475;28;20066;-76
2021/01/23 03:16:03;;;;;;;43.58;15.15;;;;;;;;;;4995237;28;20042;-77
2021/01/23 03:18:30;;;;;;;45.58;14.85;;;;;;;;;;5003552;28;20062;-76
2021/01/23 03:20:59;;;;;;;43.97;15.32;;;;;;;;;;5004575;28;20464;-76
2021/01/23 03:23:25;;;;;;;32.08;13.48;;;;;;;;;;5000616;28;20108;-76
2021/01/23 03:25:52;;;;;;;36.55;13.63;;;;;;;;;;5001775;28;20117;-76
2021/01/23 03:28:20;;;;;;;40.33;14.55;;;;;;;;;;5004621;28;20046;-76
2021/01/23 03:30:47;;;;;;;43.72;16.55;;;;;;;;;;4995570;28;20049;-77
2021/01/23 03:33:13;;;;;;;49.63;18.30;;;;;;;;;;4992674;28;20050;-76
2021/01/23 03:35:40;;;;;;;45.45;16.45;;;;;;;;;;5003968;28;20050;-77
2021/01/23 03:38:07;;;;;;;39.42;15.13;;;;;;;;;;4998152;28;20058;-76
2021/01/23 03:40:40;;;;;;;42.78;14.10;;;;;;;;;;5003797;28;20120;-76
2021/01/23 03:43:06;;;;;;;37.13;13.07;;;;;;;;;;4995374;28;20125;-76
2021/01/23 03:45:33;;;;;;;34.42;13.95;;;;;;;;;;5006317;28;20088;-76
2021/01/23 03:48:00;;;;;;;37.25;14.45;;;;;;;;;;5004813;28;20376;-76
2021/01/23 03:50:28;;;;;;;33.28;13.70;;;;;;;;;;5001656;28;20467;-76
2021/01/23 03:52:55;;;;;;;40.90;15.27;;;;;;;;;;5005094;28;20054;-76
2021/01/23 03:55:22;;;;;;;41.28;14.82;;;;;;;;;;4996933;28;20054;-76
2021/01/23 03:57:50;;;;;;;35.83;14.40;;;;;;;;;;4986424;28;20054;-76
2021/01/23 04:00:17;;;;;;;41.55;15.52;;;;;;;;;;5003040;28;20128;-77
2021/01/23 04:02:43;;;;;;;34.45;13.32;;;;;;;;;;4986057;28;20582;-77
2021/01/23 04:05:12;;;;;;;31.23;14.23;;;;;;;;;;5006915;28;20042;-77
2021/01/23 04:07:40;;;;;;;34.17;13.02;;;;;;;;;;5003405;28;20549;-77
2021/01/23 04:10:07;;;;;;;34.38;14.05;;;;;;;;;;4999013;28;20120;-76
2021/01/23 04:12:34;;;;;;;40.08;14.23;;;;;;;;;;5016694;28;20054;-76
2021/01/23 04:15:00;;;;;;;37.97;14.93;;;;;;;;;;5001223;28;20088;-77
2021/01/23 04:17:27;;;;;;;44.40;13.77;;;;;;;;;;5002370;28;20061;-76
2021/01/23 04:19:55;;;;;;;35.08;13.90;;;;;;;;;;5006801;28;20054;-76
2021/01/23 04:22:22;;;;;;;38.42;13.43;;;;;;;;;;4998034;28;20096;-76
2021/01/23 04:24:48;;;;;;;43.80;14.43;;;;;;;;;;4989696;28;20069;-76
2021/01/23 04:27:15;;;;;;;39.72;16.98;;;;;;;;;;4991835;28;20050;-76
2021/01/23 04:29:42;;;;;;;44.08;14.85;;;;;;;;;;5005209;28;20085;-76
2021/01/23 04:32:09;;;;;;;46.38;16.77;;;;;;;;;;4991327;28;20090;-76
2021/01/23 04:34:37;;;;;;;55.97;17.42;;;;;;;;;;5004532;28;20057;-77
2021/01/23 04:37:03;;;;;;;43.05;15.57;;;;;;;;;;5004765;28;20070;-77
2021/01/23 04:39:30;;;;;;;44.85;14.15;;;;;;;;;;4997458;28;20137;-76
2021/01/23 04:41:57;;;;;;;39.40;14.02;;;;;;;;;;5005645;28;20089;-76
2021/01/23 04:44:23;;;;;;;46.05;15.18;;;;;;;;;;5007832;28;20074;-76
2021/01/23 04:46:50;;;;;;;35.05;14.52;;;;;;;;;;5009370;28;20052;-76
2021/01/23 04:49:17;;;;;;;37.33;14.95;;;;;;;;;;5008845;28;20050;-76
2021/01/23 04:51:46;;;;;;;46.67;14.68;;;;;;;;;;5006088;28;20046;-76
2021/01/23 04:54:12;;;;;;;38.55;14.70;;;;;;;;;;5006085;28;20509;-76
2021/01/23 04:56:39;;;;;;;50.63;16.60;;;;;;;;;;5004993;28;20082;-76
2021/01/23 04:59:06;;;;;;;39.35;15.63;;;;;;;;;;5004574;28;20081;-76
2021/01/23 05:01:32;;;;;;;44.33;14.60;;;;;;;;;;5004794;28;20137;-76
2021/01/23 05:04:00;;;;;;;45.90;15.63;;;;;;;;;;5005591;28;20696;-76
2021/01/23 05:06:28;;;;;;;42.78;15.45;;;;;;;;;;5007660;28;20108;-76
2021/01/23 05:08:55;;;;;;;39.85;14.60;;;;;;;;;;5007334;28;20077;-76
2021/01/23 05:11:22;;;;;;;40.28;14.30;;;;;;;;;;5007245;28;20050;-76
2021/01/23 05:14:08;;;;;;;42.28;14.13;;;;;;;;;;5008756;28;20762;-76
2021/01/23 05:16:35;;;;;;;47.25;15.75;;;;;;;;;;5007248;28;20440;-76
2021/01/23 05:19:02;;;;;;;51.88;16.23;;;;;;;;;;5002901;28;20043;-76
2021/01/23 05:21:29;;;;;;;40.80;14.80;;;;;;;;;;5012263;28;20046;-76
2021/01/23 05:24:23;;;;;;;38.67;15.13;;;;;;;;;;5008914;28;20101;-76
2021/01/23 05:26:56;;;;;;;40.55;15.50;;;;;;;;;;5001182;28;20125;-76
2021/01/23 05:29:23;;;;;;;43.08;16.08;;;;;;;;;;5000613;28;20100;-76
2021/01/23 05:32:09;;;;;;;45.50;15.98;;;;;;;;;;5002974;28;20043;-76
2021/01/23 05:34:37;;;;;;;51.90;16.80;;;;;;;;;;5003583;28;20710;-76
2021/01/23 05:37:03;;;;;;;59.58;17.67;;;;;;;;;;5005199;28;20496;-76
2021/01/23 05:39:47;;;;;;;68.25;18.92;;;;;;;;;;4999118;28;20527;-76
2021/01/23 05:42:14;;;;;;;58.38;15.98;;;;;;;;;;5001931;28;20085;-76
2021/01/23 05:44:41;;;;;;;46.88;15.13;;;;;;;;;;5004720;28;20042;-76
2021/01/23 05:47:27;;;;;;;56.95;18.85;;;;;;;;;;4991422;28;20121;-76
2021/01/23 05:49:54;;;;;;;47.15;17.02;;;;;;;;;;4997876;28;20042;-76
2021/01/23 05:52:21;;;;;;;57.70;17.35;;;;;;;;;;5003092;28;20448;-76
2021/01/23 05:54:48;;;;;;;57.10;16.92;;;;;;;;;;4994905;28;20151;-76
2021/01/23 05:57:15;;;;;;;45.15;16.67;;;;;;;;;;4999951;28;20557;-76
2021/01/23 05:59:42;;;;;;;36.13;14.40;;;;;;;;;;5003640;28;20050;-77
2021/01/23 06:02:12;;;;;;;50.65;16.15;;;;;;;;;;4992646;28;20047;-76
2021/01/23 06:04:41;;;;;;;42.97;16.00;;;;;;;;;;4990547;28;20043;-76
2021/01/23 06:07:08;;;;;;;46.50;16.40;;;;;;;;;;5001864;28;20074;-76
2021/01/23 06:09:35;;;;;;;44.42;16.00;;;;;;;;;;5003680;28;20097;-76
2021/01/23 06:12:03;;;;;;;48.35;16.63;;;;;;;;;;5009602;28;20749;-76
2021/01/23 06:14:40;;;;;;;49.20;16.10;;;;;;;;;;5004822;28;20638;-76
2021/01/23 06:17:06;;;;;;;45.53;16.02;;;;;;;;;;4995922;28;20141;-76
2021/01/23 06:19:34;;;;;;;48.80;17.35;;;;;;;;;;5002834;28;20048;-76
2021/01/23 06:22:00;;;;;;;54.47;16.92;;;;;;;;;;5004358;28;20085;-76
2021/01/23 06:24:34;;;;;;;48.15;17.52;;;;;;;;;;4996729;28;20050;-76
2021/01/23 06:27:01;;;;;;;49.58;17.30;;;;;;;;;;5000581;28;20043;-76
2021/01/23 06:29:32;;;;;;;50.05;18.55;;;;;;;;;;4987683;28;20051;-76
2021/01/23 06:32:18;;;;;;;47.65;15.73;;;;;;;;;;4993133;28;20760;-76
2021/01/23 06:34:46;;;;;;;49.83;16.27;;;;;;;;;;5001507;28;20406;-77
2021/01/23 06:37:20;;;;;;;40.65;13.90;;;;;;;;;;5001016;28;20450;-76
2021/01/23 06:39:56;;;;;;;44.60;16.02;;;;;;;;;;4991497;28;20126;-76
2021/01/23 06:42:26;;;;;;;58.97;15.68;;;;;;;;;;5005982;28;20050;-76
2021/01/23 06:44:52;;;;;;;48.65;15.63;;;;;;;;;;4999957;28;20125;-77
2021/01/23 06:47:19;;;;;;;46.47;16.25;;;;;;;;;;5009913;28;20045;-76
2021/01/23 06:49:46;;;;;;;51.50;17.45;;;;;;;;;;4998581;28;20598;-76
2021/01/23 06:52:13;;;;;;;51.55;16.38;;;;;;;;;;4999407;28;20154;-76
2021/01/23 06:54:44;;;;;;;50.97;18.00;;;;;;;;;;5002524;28;20119;-76
2021/01/23 06:57:11;;;;;;;47.80;16.48;;;;;;;;;;5000688;28;20167;-77
2021/01/23 06:59:38;;;;;;;47.85;16.23;;;;;;;;;;4980582;28;20129;-77
2021/01/23 07:02:08;;;;;;;44.97;16.70;;;;;;;;;;4989127;28;20046;-77
2021/01/23 07:04:48;;;;;;;57.67;17.83;;;;;;;;;;5003697;28;20061;-76
2021/01/23 07:07:15;;;;;;;57.60;17.58;;;;;;;;;;4989482;28;20050;-77
2021/01/23 07:09:48;;;;;;;44.33;17.45;;;;;;;;;;4996427;28;20117;-76
2021/01/23 07:12:34;;;;;;;53.47;17.50;;;;;;;;;;5002821;28;20077;-77
2021/01/23 07:15:04;;;;;;;48.85;18.10;;;;;;;;;;4986769;28;20054;-76
2021/01/23 07:17:34;;;;;;;56.70;17.83;;;;;;;;;;4987155;28;20149;-77
2021/01/23 07:20:05;;;;;;;64.25;19.38;;;;;;;;;;4999558;28;20061;-77
2021/01/23 07:22:33;;;;;;;61.63;19.17;;;;;;;;;;5002311;28;20495;-77
2021/01/23 07:24:59;;;;;;;58.05;17.63;;;;;;;;;;4998406;28;20134;-77
2021/01/23 07:27:26;;;;;;;57.80;16.63;;;;;;;;;;5003354;28;20086;-77
2021/01/23 07:29:53;;;;;;;46.17;16.63;;;;;;;;;;4999413;28;20875;-77
2021/01/23 07:32:19;;;;;;;61.63;19.42;;;;;;;;;;4992824;28;20133;-77
2021/01/23 07:34:53;;;;;;;57.53;17.08;;;;;;;;;;5003811;28;20053;-77
2021/01/23 07:37:37;;;;;;;71.50;21.67;;;;;;;;;;4992247;28;20113;-77
2021/01/23 07:40:04;;;;;;;64.38;20.17;;;;;;;;;;4995920;28;20045;-77
2021/01/23 07:42:31;;;;;;;75.57;20.85;;;;;;;;;;5000691;28;20108;-77
2021/01/23 07:45:00;;;;;;;75.28;20.40;;;;;;;;;;5002426;28;20077;-77
2021/01/23 07:47:27;;;;;;;60.03;21.33;;;;;;;;;;4996295;28;20089;-76
2021/01/23 07:50:03;;;;;;;59.58;22.10;;;;;;;;;;5003656;28;20041;-77
2021/01/23 07:52:30;;;;;;;69.60;22.92;;;;;;;;;;5000292;28;20061;-76
2021/01/23 07:54:57;;;;;;;62.63;22.52;;;;;;;;;;4998183;28;20487;-77
2021/01/23 07:57:24;;;;;;;69.85;23.30;;;;;;;;;;5002745;28;20124;-77
2021/01/23 07:59:51;;;;;;;68.65;21.73;;;;;;;;;;4996114;28;20370;-77
2021/01/23 08:02:20;;;;;;;70.38;22.33;;;;;;;;;;4991826;28;20129;-76
2021/01/23 08:04:48;;;;;;;68.65;22.13;;;;;;;;;;5005041;28;20050;-77
2021/01/23 08:07:24;;;;;;;60.42;22.83;;;;;;;;;;5002218;28;20042;-77
2021/01/23 08:10:03;;;;;;;61.35;22.58;;;;;;;;;;5005489;28;20046;-78
2021/01/23 08:12:30;;;;;;;58.40;21.35;;;;;;;;;;4999560;28;20140;-77
2021/01/23 08:14:57;;;;;;;63.15;21.08;;;;;;;;;;5004956;28;20089;-77
2021/01/23 08:17:38;;;;;;;68.88;22.50;;;;;;;;;;5016358;28;20562;-77
2021/01/23 08:20:09;;;;;;;70.45;23.42;;;;;;;;;;4994040;28;20050;-77
2021/01/23 08:22:57;;;;;;;71.15;22.75;;;;;;;;;;4990571;28;20042;-77
2021/01/23 08:25:25;;;;;;;63.53;21.25;;;;;;;;;;4999895;28;20129;-77
2021/01/23 08:27:52;;;;;;;64.15;23.17;;;;;;;;;;4999554;28;20129;-77
2021/01/23 08:30:19;;;;;;;63.65;20.73;;;;;;;;;;4999992;28;20133;-77
2021/01/23 08:32:45;;;;;;;63.30;22.55;;;;;;;;;;4991430;28;20501;-77
2021/01/23 08:35:16;;;;;;;73.85;23.58;;;;;;;;;;5000225;28;20062;-77
2021/01/23 08:37:46;;;;;;;68.30;21.83;;;;;;;;;;4995190;28;20136;-77
2021/01/23 08:40:19;;;;;;;76.57;23.35;;;;;;;;;;5003224;28;20054;-77
2021/01/23 08:42:50;;;;;;;64.78;22.85;;;;;;;;;;4988342;28;20051;-77
2021/01/23 08:45:18;;;;;;;65.32;22.73;;;;;;;;;;4992297;28;20054;-77
2021/01/23 08:47:48;;;;;;;68.68;24.27;;;;;;;;;;4991892;28;20088;-77
2021/01/23 08:50:17;;;;;;;68.75;23.23;;;;;;;;;;5002619;28;20073;-77
2021/01/23 08:52:51;;;;;;;68.78;24.40;;;;;;;;;;4998696;28;20097;-77
2021/01/23 08:55:18;;;;;;;73.60;23.02;;;;;;;;;;5002360;28;20149;-77
2021/01/23 08:57:48;;;;;;;65.88;22.52;;;;;;;;;;4991788;28;20480;-77
2021/01/23 09:00:16;;;;;;;72.20;24.08;;;;;;;;;;4999578;28;20055;-77
2021/01/23 09:02:43;;;;;;;69.03;24.95;;;;;;;;;;4990532;28;20046;-77
2021/01/23 09:05:11;;;;;;;76.68;24.63;;;;;;;;;;4999440;28;20481;-77
2021/01/23 09:07:39;;;;;;;75.63;25.65;;;;;;;;;;5000242;28;20046;-76
2021/01/23 09:10:07;;;;;;;75.57;25.05;;;;;;;;;;4995479;28;20047;-77
2021/01/23 09:12:34;;;;;;;72.78;24.42;;;;;;;;;;4999142;28;20613;-77
2021/01/23 09:15:00;;;;;;;73.72;25.63;;;;;;;;;;4993394;28;20731;-77
2021/01/23 09:17:29;;;;;;;76.45;24.48;;;;;;;;;;5007273;28;20445;-77
2021/01/23 09:19:56;;;;;;;69.78;24.40;;;;;;;;;;5010551;28;20123;-77
2021/01/23 09:22:22;;;;;;;79.28;24.45;;;;;;;;;;5004873;28;20068;-77
2021/01/23 09:24:49;;;;;;;80.13;25.60;;;;;;;;;;5001320;28;20066;-77
2021/01/23 09:27:16;;;;;;;77.85;25.55;;;;;;;;;;4979068;28;20057;-76
2021/01/23 09:29:43;;;;;;;71.20;24.92;;;;;;;;;;4999881;28;20090;-76
2021/01/23 09:32:17;;;;;;;74.75;24.73;;;;;;;;;;4994376;28;20157;-83
2021/01/23 09:34:45;;;;;;;59.00;22.52;;;;;;;;;;5005571;28;20075;-78
2021/01/23 09:37:26;;;;;;;69.07;24.08;;;;;;;;;;5004910;28;20057;-81
2021/01/23 09:39:53;;;;;;;67.93;23.85;;;;;;;;;;4996936;28;20380;-79
2021/01/23 09:42:20;;;;;;;75.55;23.95;;;;;;;;;;5004613;28;20074;-84
2021/01/23 09:44:47;;;;;;;80.38;25.13;;;;;;;;;;5004430;28;20073;-82
2021/01/23 09:47:14;;;;;;;65.65;23.33;;;;;;;;;;5003793;28;20430;-80
2021/01/23 09:49:41;;;;;;;75.90;26.38;;;;;;;;;;5003771;28;20046;-82
2021/01/23 09:52:08;;;;;;;73.43;25.27;;;;;;;;;;4995868;28;20495;-81
2021/01/23 09:54:35;;;;;;;65.80;24.08;;;;;;;;;;4995938;28;20073;-80
2021/01/23 09:57:05;;;;;;;66.07;24.42;;;;;;;;;;5003690;28;20134;-82
2021/01/23 09:59:31;;;;;;;74.28;24.70;;;;;;;;;;5005817;28;20476;-81
2021/01/23 10:01:58;;;;;;;74.43;25.98;;;;;;;;;;4999340;28;20084;-80
2021/01/23 10:04:28;;;;;;;68.22;24.67;;;;;;;;;;5002769;28;20046;-81
2021/01/23 10:06:55;;;;;;;65.85;23.85;;;;;;;;;;4999705;28;20538;-79
2021/01/23 10:09:22;;;;;;;70.65;23.00;;;;;;;;;;5002432;28;20473;-81
2021/01/23 10:11:49;;;;;;;64.28;24.25;;;;;;;;;;5004411;28;20489;-79
2021/01/23 10:14:15;;;;;;;76.40;24.50;;;;;;;;;;5006513;28;20503;-81
2021/01/23 10:16:42;;;;;;;76.78;26.40;;;;;;;;;;5002558;28;20105;-78
2021/01/23 10:19:09;;;;;;;66.65;24.30;;;;;;;;;;4998878;28;20446;-78
2021/01/23 10:21:36;;;;;;;75.70;25.42;;;;;;;;;;4998929;28;20572;-78
2021/01/23 10:24:03;;;;;;;67.90;25.60;;;;;;;;;;4989191;28;20061;-78
2021/01/23 10:26:31;;;;;;;66.95;22.08;;;;;;;;;;4993349;28;20100;-78
2021/01/23 10:28:58;;;;;;;69.97;24.00;;;;;;;;;;4992460;28;20046;-78
2021/01/23 10:31:25;;;;;;;67.97;24.15;;;;;;;;;;4987574;28;20074;-77
2021/01/23 10:33:54;;;;;;;68.22;24.63;;;;;;;;;;4994031;28;20049;-79
2021/01/23 10:36:22;;;;;;;58.33;24.35;;;;;;;;;;4992970;28;20133;-77
2021/01/23 10:38:49;;;;;;;65.60;24.58;;;;;;;;;;5004523;28;20049;-79
2021/01/23 10:41:15;;;;;;;76.90;27.13;;;;;;;;;;5003753;28;20077;-77
2021/01/23 10:43:42;;;;;;;84.03;27.13;;;;;;;;;;4993292;28;20078;-78
2021/01/23 10:46:09;;;;;;;192.35;37.83;;;;;;;;;;4992347;28;20046;-76
2021/01/23 10:48:36;;;;;;;435.60;68.47;;;;;;;;;;5008128;28;20078;-77
2021/01/23 10:51:04;;;;;;;73.20;25.42;;;;;;;;;;4992249;28;20045;-77
2021/01/23 10:53:32;;;;;;;69.38;24.80;;;;;;;;;;5000667;28;20054;-78
2021/01/23 10:55:58;;;;;;;78.13;27.30;;;;;;;;;;4999156;28;20411;-77
2021/01/23 10:58:25;;;;;;;72.90;27.13;;;;;;;;;;4992834;28;20046;-78
2021/01/23 11:00:52;;;;;;;63.85;25.25;;;;;;;;;;4989746;28;20097;-77
2021/01/23 11:03:18;;;;;;;75.65;25.40;;;;;;;;;;4987017;28;20622;-77
2021/01/23 11:05:45;;;;;;;69.78;24.75;;;;;;;;;;4989418;28;20049;-77
2021/01/23 11:08:12;;;;;;;76.22;26.38;;;;;;;;;;4992988;28;20097;-75
2021/01/23 11:10:39;;;;;;;627.00;99.88;;;;;;;;;;4990071;28;20472;-76
2021/01/23 11:13:05;;;;;;;718.08;92.40;;;;;;;;;;4984859;28;20046;-75
2021/01/23 11:15:32;;;;;;;76.00;27.63;;;;;;;;;;4991510;28;20071;-76
2021/01/23 11:17:59;;;;;;;65.57;25.17;;;;;;;;;;4997556;28;20579;-78
2021/01/23 11:20:26;;;;;;;69.40;25.48;;;;;;;;;;4990191;28;20054;-78
2021/01/23 11:22:53;;;;;;;65.03;25.10;;;;;;;;;;4986871;28;20168;-77
2021/01/23 11:25:19;;;;;;;76.25;26.63;;;;;;;;;;4998599;28;20116;-77
2021/01/23 11:27:46;;;;;;;67.35;24.42;;;;;;;;;;4992640;28;20526;-77
2021/01/23 11:30:13;;;;;;;73.63;24.83;;;;;;;;;;5001809;28;20120;-77
2021/01/23 11:32:39;;;;;;;62.03;23.98;;;;;;;;;;4985332;28;20042;-77
2021/01/23 11:35:07;;;;;;;71.00;24.38;;;;;;;;;;5003956;28;20054;-77
2021/01/23 11:37:35;;;;;;;66.90;23.45;;;;;;;;;;5000874;28;20053;-77
2021/01/23 11:40:03;;;;;;;63.03;22.30;;;;;;;;;;4990899;28;20078;-77
2021/01/23 11:42:31;;;;;;;65.57;22.95;;;;;;;;;;5000248;28;20057;-77
2021/01/23 11:44:58;;;;;;;63.15;21.52;;;;;;;;;;4987359;28;20416;-77
2021/01/23 11:47:25;;;;;;;65.78;23.52;;;;;;;;;;5000392;28;20074;-77
2021/01/23 11:49:52;;;;;;;62.03;24.40;;;;;;;;;;4997965;28;20053;-76
2021/01/23 11:52:18;;;;;;;61.25;24.58;;;;;;;;;;4999580;28;20046;-76
2021/01/23 11:54:45;;;;;;;59.97;23.15;;;;;;;;;;5002723;28;20130;-76
2021/01/23 11:57:12;;;;;;;57.15;22.23;;;;;;;;;;4998913;28;20136;-77
2021/01/23 11:59:40;;;;;;;59.47;23.92;;;;;;;;;;4986211;28;20077;-78
2021/01/23 12:02:07;;;;;;;56.53;21.50;;;;;;;;;;4990423;28;20134;-78
2021/01/23 12:04:34;;;;;;;62.08;23.17;;;;;;;;;;4996782;28;20072;-78
2021/01/23 12:07:01;;;;;;;68.80;29.35;;;;;;;;;;4998965;28;20093;-78
2021/01/23 12:09:27;;;;;;;57.58;22.58;;;;;;;;;;4991164;28;20077;-76
2021/01/23 12:11:55;;;;;;;58.70;28.30;;;;;;;;;;4989547;28;20459;-77
2021/01/23 12:14:22;;;;;;;64.20;23.65;;;;;;;;;;4988572;28;20558;-77
2021/01/23 12:16:49;;;;;;;61.63;22.20;;;;;;;;;;4997780;28;20058;-79
2021/01/23 12:19:17;;;;;;;53.97;20.80;;;;;;;;;;5000435;28;20057;-82
2021/01/23 12:21:45;;;;;;;54.47;21.50;;;;;;;;;;4998739;28;20066;-80
2021/01/23 12:24:22;;;;;;;94.20;40.08;;;;;;;;;;5002427;28;20129;-82
2021/01/23 12:26:51;;;;;;;57.42;24.38;;;;;;;;;;5014299;28;20369;-81
2021/01/23 12:29:20;;;;;;;54.05;22.23;;;;;;;;;;4989758;28;20090;-81
2021/01/23 12:31:46;;;;;;;69.03;26.38;;;;;;;;;;4987116;28;20372;-79
2021/01/23 12:34:13;;;;;;;58.35;20.98;;;;;;;;;;4992086;28;20056;-80
2021/01/23 12:36:40;;;;;;;55.55;21.77;;;;;;;;;;5004131;28;20070;-79
2021/01/23 12:39:08;;;;;;;52.83;20.70;;;;;;;;;;4995508;28;20464;-79
2021/01/23 12:41:35;;;;;;;57.05;19.92;;;;;;;;;;4992695;28;20096;-80
2021/01/23 12:44:04;;;;;;;52.92;21.48;;;;;;;;;;5003349;28;20125;-79
2021/01/23 12:46:30;;;;;;;60.35;21.30;;;;;;;;;;5001351;28;20054;-81
2021/01/23 12:49:25;;;;;;;49.90;20.15;;;;;;;;;;4999613;28;20129;-85
2021/01/23 12:52:15;;;;;;;54.17;20.83;;;;;;;;;;4994262;28;20092;-84
2021/01/23 12:54:52;;;;;;;51.08;20.25;;;;;;;;;;5001540;28;20392;-84
2021/01/23 12:57:25;;;;;;;60.22;22.65;;;;;;;;;;4997900;28;20410;-84
2021/01/23 12:59:52;;;;;;;60.70;21.38;;;;;;;;;;5018923;28;20127;-84
2021/01/23 13:02:19;;;;;;;581.67;75.75;;;;;;;;;;4996098;28;20050;-79
2021/01/23 13:04:46;;;;;;;59.45;21.83;;;;;;;;;;5007699;28;20042;-80
2021/01/23 13:07:13;;;;;;;56.70;21.80;;;;;;;;;;5002174;28;20149;-79
2021/01/23 13:09:40;;;;;;;61.65;21.80;;;;;;;;;;5012591;28;20148;-79
2021/01/23 13:12:07;;;;;;;56.47;21.27;;;;;;;;;;5007440;28;20160;-76
2021/01/23 13:14:33;;;;;;;47.38;21.15;;;;;;;;;;4993878;28;20085;-76
2021/01/23 13:17:00;;;;;;;54.08;21.17;;;;;;;;;;5005003;28;20132;-77
2021/01/23 13:19:27;;;;;;;62.08;22.98;;;;;;;;;;4993579;28;20050;-79
2021/01/23 13:21:54;;;;;;;51.78;21.65;;;;;;;;;;4993310;28;20137;-79
2021/01/23 13:24:21;;;;;;;54.58;21.45;;;;;;;;;;4995068;28;20100;-80
2021/01/23 13:26:53;;;;;;;55.83;22.27;;;;;;;;;;5001508;28;20761;-80
2021/01/23 13:29:23;;;;;;;55.55;20.80;;;;;;;;;;5005291;28;20123;-79
2021/01/23 13:31:50;;;;;;;58.42;24.02;;;;;;;;;;4994673;28;20706;-79
2021/01/23 13:34:17;;;;;;;49.05;21.40;;;;;;;;;;5002813;28;20057;-79
2021/01/23 13:36:45;;;;;;;61.65;21.35;;;;;;;;;;4992949;28;20050;-78
2021/01/23 13:39:17;;;;;;;46.95;20.30;;;;;;;;;;4996332;28;20056;-78
2021/01/23 13:41:44;;;;;;;61.13;21.50;;;;;;;;;;4998572;28;20063;-78
2021/01/23 13:44:12;;;;;;;50.08;19.20;;;;;;;;;;5009958;28;20078;-78
2021/01/23 13:46:40;;;;;;;49.58;20.02;;;;;;;;;;4997406;28;20472;-78
2021/01/23 13:49:07;;;;;;;54.72;20.08;;;;;;;;;;5005430;28;20046;-77
2021/01/23 13:51:34;;;;;;;51.55;19.17;;;;;;;;;;4991474;28;21614;-77
2021/01/23 13:54:00;;;;;;;45.85;18.98;;;;;;;;;;4997193;28;20078;-76
2021/01/23 13:56:27;;;;;;;42.40;17.77;;;;;;;;;;5001657;28;20142;-77
2021/01/23 13:58:55;;;;;;;53.60;18.48;;;;;;;;;;5005441;28;20487;-78
2021/01/23 14:01:21;;;;;;;43.22;18.02;;;;;;;;;;4997286;28;20582;-77
2021/01/23 14:03:51;;;;;;;44.75;17.55;;;;;;;;;;4995685;28;20046;-78
2021/01/23 14:06:18;;;;;;;48.65;17.58;;;;;;;;;;4998596;28;20152;-78
2021/01/23 14:09:11;;;;;;;53.25;19.00;;;;;;;;;;4999501;28;20483;-79
2021/01/23 14:11:58;;;;;;;53.30;18.50;;;;;;;;;;5008279;28;20602;-78
2021/01/23 14:14:26;;;;;;;48.65;19.23;;;;;;;;;;4995293;28;20133;-80
2021/01/23 14:16:53;;;;;;;51.45;19.65;;;;;;;;;;5005561;28;20656;-79
2021/01/23 14:19:20;;;;;;;56.83;18.42;;;;;;;;;;5000400;28;20079;-79
2021/01/23 14:21:46;;;;;;;45.65;18.30;;;;;;;;;;5005056;28;20053;-80
2021/01/23 14:24:13;;;;;;;44.08;18.58;;;;;;;;;;5001088;28;20134;-79
2021/01/23 14:26:40;;;;;;;53.97;18.52;;;;;;;;;;5004510;28;20042;-78